Time;durP1;ratioP1;P1;durP2;ratioP2;P2;SDS_P1;SDS_P2;PMS_P1;PMS_P2;Temp;Humidity;BMP_temperature;BMP_pressure;BME280_temperature;BME280_humidity;BME280_pressure;Samples;Min_cycle;Max_cycle;Signal;HPM_P1;HPM_P2
2021/08/06 00:02:04;;;;;;;;;;;13.40;93.60;;;;;;5087527;28;19947;-65
2021/08/06 00:04:31;;;;;;;;;;;13.40;93.30;;;;;;5073231;28;19935;-69
2021/08/06 00:06:57;;;;;;;;;;;13.50;93.10;;;;;;5072130;28;19952;-65
2021/08/06 00:09:24;;;;;;;;;;;13.50;93.00;;;;;;5054347;28;19918;-65
2021/08/06 00:11:57;;;;;;;;;;;13.60;93.30;;;;;;5071895;28;20370;-66
2021/08/06 00:14:25;;;;;;;;;;;13.70;92.80;;;;;;5072331;28;19909;-65
2021/08/06 00:16:52;;;;;;;;;;;13.70;92.60;;;;;;5071831;28;19909;-65
2021/08/06 00:19:19;;;;;;;;;;;13.80;92.50;;;;;;5072045;28;20407;-65
2021/08/06 00:21:45;;;;;;;;;;;13.80;91.90;;;;;;5071874;28;19908;-65
2021/08/06 00:24:12;;;;;;;;;;;13.90;92.00;;;;;;5071972;28;19954;-65
2021/08/06 00:26:39;;;;;;;;;;;14.10;91.90;;;;;;5071876;28;20396;-62
2021/08/06 00:29:06;;;;;;;;;;;14.10;91.70;;;;;;5072067;28;20068;-65
2021/08/06 00:31:32;;;;;;;;;;;14.20;92.10;;;;;;5071656;28;20370;-64
2021/08/06 00:33:59;;;;;;;;;;;14.10;92.00;;;;;;5072057;28;20440;-64
2021/08/06 00:36:26;;;;;;;;;;;14.20;91.90;;;;;;5071971;28;20055;-65
2021/08/06 00:38:52;;;;;;;;;;;14.30;91.90;;;;;;5071714;28;19917;-65
2021/08/06 00:41:19;;;;;;;;;;;14.40;91.70;;;;;;5075568;28;20279;-64
2021/08/06 00:43:46;;;;;;;;;;;14.40;91.70;;;;;;5075612;28;19909;-65
2021/08/06 00:46:16;;;;;;;;;;;14.50;91.20;;;;;;5075174;28;19921;-65
2021/08/06 00:48:45;;;;;;;;;;;14.60;91.50;;;;;;5075585;28;20367;-64
2021/08/06 00:51:13;;;;;;;;;;;14.70;91.30;;;;;;5075361;28;19909;-65
2021/08/06 00:53:39;;;;;;;;;;;14.70;91.00;;;;;;5075218;28;19909;-65
2021/08/06 00:56:07;;;;;;;;;;;14.70;90.90;;;;;;5075574;28;19914;-64
2021/08/06 00:58:33;;;;;;;;;;;14.80;90.90;;;;;;5075539;28;19909;-66
2021/08/06 01:01:00;;;;;;;;;;;14.70;91.10;;;;;;5075290;28;19908;-66
2021/08/06 01:03:45;;;;;;;;;;;14.80;90.80;;;;;;5075387;28;19909;-65
2021/08/06 01:06:22;;;;;;;;;;;14.80;91.30;;;;;;5075143;28;20429;-65
2021/08/06 01:09:01;;;;;;;;;;;14.90;90.60;;;;;;5075342;28;19956;-65
2021/08/06 01:11:31;;;;;;;;;;;15.10;90.40;;;;;;5075207;28;19909;-66
2021/08/06 01:13:59;;;;;;;;;;;15.50;90.00;;;;;;5075110;28;19909;-66
2021/08/06 01:16:29;;;;;;;;;;;15.90;88.80;;;;;;5074965;28;20003;-65
2021/08/06 01:19:16;;;;;;;;;;;16.10;88.20;;;;;;5075345;28;19909;-65
2021/08/06 01:21:44;;;;;;;;;;;16.30;88.20;;;;;;5074372;28;20320;-65
2021/08/06 01:24:15;;;;;;;;;;;16.60;87.50;;;;;;5075065;28;19996;-65
2021/08/06 01:26:43;;;;;;;;;;;16.60;86.80;;;;;;5074690;28;19912;-65
2021/08/06 01:29:10;;;;;;;;;;;16.70;86.40;;;;;;5074908;28;20312;-64
2021/08/06 01:31:36;;;;;;;;;;;16.80;86.30;;;;;;5074521;28;19909;-65
2021/08/06 01:34:03;;;;;;;;;;;16.70;85.80;;;;;;5074580;28;19908;-66
2021/08/06 01:36:30;;;;;;;;;;;16.60;86.50;;;;;;5074534;28;19909;-66
2021/08/06 01:38:57;;;;;;;;;;;16.50;85.80;;;;;;5074771;28;19992;-65
2021/08/06 01:41:27;;;;;;;;;;;16.40;86.10;;;;;;5074495;28;20383;-66
2021/08/06 01:44:06;;;;;;;;;;;16.30;87.00;;;;;;5074218;28;19908;-66
2021/08/06 01:46:35;;;;;;;;;;;16.20;88.20;;;;;;5074343;28;19960;-66
2021/08/06 01:49:09;;;;;;;;;;;16.10;87.50;;;;;;5074697;28;19995;-66
2021/08/06 01:51:36;;;;;;;;;;;16.20;87.20;;;;;;5073716;28;19913;-65
2021/08/06 01:54:03;;;;;;;;;;;16.20;88.80;;;;;;5074411;28;19916;-65
2021/08/06 01:56:31;;;;;;;;;;;16.20;85.90;;;;;;5074417;28;20386;-67
2021/08/06 01:59:00;;;;;;;;;;;16.10;86.40;;;;;;5074419;28;19915;-66
2021/08/06 02:01:26;;;;;;;;;;;16.00;86.40;;;;;;5074216;28;19915;-65
2021/08/06 02:03:53;;;;;;;;;;;16.00;86.70;;;;;;5074041;28;19909;-65
2021/08/06 02:06:20;;;;;;;;;;;16.00;87.30;;;;;;5074114;28;19928;-65
2021/08/06 02:08:47;;;;;;;;;;;16.00;87.00;;;;;;5074204;28;19909;-66
2021/08/06 02:11:16;;;;;;;;;;;15.90;87.10;;;;;;5074306;28;19909;-65
2021/08/06 02:13:43;;;;;;;;;;;15.90;87.30;;;;;;5073873;28;19981;-66
2021/08/06 02:16:10;;;;;;;;;;;16.00;87.50;;;;;;5073949;28;19908;-66
2021/08/06 02:18:37;;;;;;;;;;;16.10;87.50;;;;;;5073791;28;19909;-66
2021/08/06 02:21:11;;;;;;;;;;;16.20;86.70;;;;;;5073940;28;19913;-65
2021/08/06 02:23:43;;;;;;;;;;;16.10;86.80;;;;;;5055497;28;20350;-65
2021/08/06 02:26:12;;;;;;;;;;;16.10;86.80;;;;;;5073634;28;20000;-65
2021/08/06 02:28:39;;;;;;;;;;;16.10;86.50;;;;;;5073483;28;19991;-64
2021/08/06 02:31:06;;;;;;;;;;;16.10;87.00;;;;;;5073441;28;20007;-64
2021/08/06 02:33:33;;;;;;;;;;;16.10;86.70;;;;;;5073516;28;19908;-64
2021/08/06 02:35:59;;;;;;;;;;;16.10;86.30;;;;;;5073603;28;19948;-64
2021/08/06 02:38:28;;;;;;;;;;;16.20;86.40;;;;;;5073441;28;19912;-64
2021/08/06 02:40:54;;;;;;;;;;;16.20;86.00;;;;;;5073460;28;19924;-64
2021/08/06 02:43:21;;;;;;;;;;;16.10;85.80;;;;;;5073563;28;19909;-64
2021/08/06 02:45:49;;;;;;;;;;;16.10;85.90;;;;;;5072947;28;19920;-65
2021/08/06 02:48:16;;;;;;;;;;;16.20;85.80;;;;;;5073257;28;19916;-64
2021/08/06 02:50:42;;;;;;;;;;;16.10;85.90;;;;;;5073383;28;19908;-65
2021/08/06 02:53:09;;;;;;;;;;;16.10;86.50;;;;;;5073258;28;20390;-64
2021/08/06 02:55:36;;;;;;;;;;;16.30;86.10;;;;;;5072856;28;20319;-64
2021/08/06 02:58:03;;;;;;;;;;;16.40;86.00;;;;;;5073155;28;19908;-64
2021/08/06 03:00:30;;;;;;;;;;;16.60;85.60;;;;;;5072860;28;19969;-64
2021/08/06 03:02:57;;;;;;;;;;;16.60;84.50;;;;;;5072063;28;19908;-65
2021/08/06 03:05:23;;;;;;;;;;;16.50;86.00;;;;;;5072988;28;19908;-65
2021/08/06 03:07:53;;;;;;;;;;;16.40;85.80;;;;;;5072790;28;20014;-65
2021/08/06 03:10:23;;;;;;;;;;;16.60;85.50;;;;;;5072681;28;19915;-65
2021/08/06 03:12:50;;;;;;;;;;;16.60;85.80;;;;;;5072857;28;19913;-64
2021/08/06 03:15:18;;;;;;;;;;;16.50;85.10;;;;;;5072561;28;19908;-64
2021/08/06 03:17:45;;;;;;;;;;;16.40;85.80;;;;;;5072621;28;19962;-65
2021/08/06 03:20:15;;;;;;;;;;;16.60;85.70;;;;;;5072780;28;19908;-66
2021/08/06 03:22:42;;;;;;;;;;;16.90;84.30;;;;;;5072752;28;19915;-65
2021/08/06 03:25:09;;;;;;;;;;;17.00;84.60;;;;;;5071930;28;19908;-65
2021/08/06 03:27:36;;;;;;;;;;;17.00;84.20;;;;;;5087895;28;19920;-67
2021/08/06 03:30:04;;;;;;;;;;;17.00;82.80;;;;;;5072309;28;20374;-66
2021/08/06 03:32:31;;;;;;;;;;;16.90;83.00;;;;;;5072772;28;19931;-66
2021/08/06 03:34:57;;;;;;;;;;;16.80;84.40;;;;;;5072706;28;20030;-67
2021/08/06 03:37:24;;;;;;;;;;;16.70;83.30;;;;;;5072456;28;19920;-67
2021/08/06 03:39:51;;;;;;;;;;;16.70;83.60;;;;;;5071938;28;20372;-67
2021/08/06 03:42:17;;;;;;;;;;;16.90;82.70;;;;;;5072259;28;19998;-67
2021/08/06 03:44:44;;;;;;;;;;;16.80;83.00;;;;;;5072101;28;20430;-67
2021/08/06 03:47:11;;;;;;;;;;;16.90;83.00;;;;;;5054340;28;19917;-66
2021/08/06 03:49:37;;;;;;;;;;;16.80;83.80;;;;;;5071932;28;19909;-65
2021/08/06 03:52:04;;;;;;;;;;;16.70;83.50;;;;;;5072581;28;19913;-66
2021/08/06 03:54:31;;;;;;;;;;;16.80;84.00;;;;;;5071891;28;19944;-66
2021/08/06 03:56:58;;;;;;;;;;;16.80;82.80;;;;;;5071910;28;20273;-66
2021/08/06 03:59:24;;;;;;;;;;;16.90;84.00;;;;;;5072038;28;19912;-65
2021/08/06 04:01:52;;;;;;;;;;;17.20;83.00;;;;;;5071912;28;19916;-66
2021/08/06 04:04:18;;;;;;;;;;;17.10;83.10;;;;;;5072317;28;20312;-66
2021/08/06 04:06:45;;;;;;;;;;;17.10;83.00;;;;;;5072108;28;19999;-67
2021/08/06 04:09:12;;;;;;;;;;;17.10;82.70;;;;;;5072136;28;19934;-67
2021/08/06 04:11:39;;;;;;;;;;;16.90;83.10;;;;;;5071490;28;20335;-66
2021/08/06 04:14:05;;;;;;;;;;;16.90;83.50;;;;;;5072231;28;20374;-66
2021/08/06 04:16:32;;;;;;;;;;;16.90;83.00;;;;;;5076230;28;20316;-66
2021/08/06 04:18:59;;;;;;;;;;;16.90;83.60;;;;;;5076382;28;19908;-66
2021/08/06 04:21:25;;;;;;;;;;;17.00;82.40;;;;;;5076254;28;19908;-66
2021/08/06 04:23:52;;;;;;;;;;;16.90;82.20;;;;;;5057854;28;19908;-64
2021/08/06 04:26:19;;;;;;;;;;;17.00;82.10;;;;;;5075987;28;19932;-64
2021/08/06 04:28:45;;;;;;;;;;;17.00;82.20;;;;;;5075900;28;19908;-64
2021/08/06 04:31:12;;;;;;;;;;;17.00;82.70;;;;;;5076013;28;19908;-65
2021/08/06 04:33:39;;;;;;;;;;;16.90;82.30;;;;;;5075681;28;19915;-65
2021/08/06 04:36:06;;;;;;;;;;;17.00;82.40;;;;;;5075838;28;19987;-65
2021/08/06 04:38:32;;;;;;;;;;;17.40;81.30;;;;;;5075564;28;19912;-65
2021/08/06 04:40:59;;;;;;;;;;;17.40;79.90;;;;;;5075580;28;20275;-65
2021/08/06 04:43:26;;;;;;;;;;;17.20;80.60;;;;;;5075702;28;19966;-65
2021/08/06 04:45:52;;;;;;;;;;;17.30;81.00;;;;;;5075236;28;20404;-66
2021/08/06 04:48:20;;;;;;;;;;;17.40;80.30;;;;;;5091188;28;20264;-67
2021/08/06 04:50:47;;;;;;;;;;;17.30;79.30;;;;;;5075525;28;19992;-66
2021/08/06 04:53:13;;;;;;;;;;;17.50;79.60;;;;;;5075620;28;19915;-66
2021/08/06 04:55:40;;;;;;;;;;;17.60;78.70;;;;;;5075414;28;19915;-66
2021/08/06 04:58:07;;;;;;;;;;;17.50;78.60;;;;;;5075632;28;19920;-66
2021/08/06 05:00:34;;;;;;;;;;;17.50;79.30;;;;;;5075404;28;19908;-66
2021/08/06 05:03:00;;;;;;;;;;;17.50;79.10;;;;;;5075215;28;19909;-66
2021/08/06 05:05:27;;;;;;;;;;;17.40;78.80;;;;;;5075322;28;20283;-65
2021/08/06 05:07:54;;;;;;;;;;;17.30;80.00;;;;;;5075005;28;19969;-67
2021/08/06 05:10:22;;;;;;;;;;;17.30;78.80;;;;;;5075249;28;19962;-66
2021/08/06 05:12:48;;;;;;;;;;;17.20;78.90;;;;;;5075279;28;19908;-67
2021/08/06 05:15:15;;;;;;;;;;;17.10;78.40;;;;;;5075241;28;19909;-66
2021/08/06 05:17:42;;;;;;;;;;;17.20;78.60;;;;;;5074772;28;19909;-66
2021/08/06 05:20:10;;;;;;;;;;;17.30;78.30;;;;;;5074882;28;19909;-65
2021/08/06 05:22:36;;;;;;;;;;;17.30;79.30;;;;;;5074903;28;19915;-67
2021/08/06 05:25:06;;;;;;;;;;;17.40;79.10;;;;;;5074654;28;19908;-67
2021/08/06 05:27:32;;;;;;;;;;;17.20;78.60;;;;;;5073634;28;19952;-66
2021/08/06 05:29:59;;;;;;;;;;;17.40;79.00;;;;;;5074828;28;19909;-66
2021/08/06 05:32:26;;;;;;;;;;;17.30;80.60;;;;;;5075042;28;19915;-66
2021/08/06 05:34:52;;;;;;;;;;;17.20;79.20;;;;;;5074941;28;19908;-64
2021/08/06 05:37:19;;;;;;;;;;;17.10;79.10;;;;;;5074917;28;20258;-65
2021/08/06 05:39:46;;;;;;;;;;;17.10;80.00;;;;;;5074536;28;20320;-66
2021/08/06 05:42:12;;;;;;;;;;;17.30;80.00;;;;;;5074498;28;19908;-67
2021/08/06 05:44:39;;;;;;;;;;;17.30;79.80;;;;;;5074597;28;19980;-66
2021/08/06 05:47:05;;;;;;;;;;;17.30;79.10;;;;;;5074197;28;19924;-65
2021/08/06 05:49:32;;;;;;;;;;;17.20;80.20;;;;;;5074257;28;19947;-66
2021/08/06 05:51:59;;;;;;;;;;;17.20;80.50;;;;;;5074296;28;19908;-66
2021/08/06 05:54:25;;;;;;;;;;;17.20;80.80;;;;;;5074564;28;19908;-66
2021/08/06 05:56:52;;;;;;;;;;;17.20;80.90;;;;;;5074550;28;20003;-66
2021/08/06 05:59:19;;;;;;;;;;;17.20;80.30;;;;;;5074440;28;20285;-67
2021/08/06 06:01:46;;;;;;;;;;;17.20;80.20;;;;;;5073937;28;19915;-68
2021/08/06 06:04:12;;;;;;;;;;;17.10;80.30;;;;;;5074301;28;20437;-66
2021/08/06 06:06:39;;;;;;;;;;;16.90;80.50;;;;;;5074094;28;19916;-67
2021/08/06 06:09:05;;;;;;;;;;;16.80;81.00;;;;;;5073978;28;19909;-65
2021/08/06 06:11:32;;;;;;;;;;;16.80;82.00;;;;;;5073844;28;20363;-65
2021/08/06 06:14:00;;;;;;;;;;;16.80;82.00;;;;;;5074095;28;19909;-66
2021/08/06 06:16:28;;;;;;;;;;;17.10;81.20;;;;;;5073585;28;19916;-65
2021/08/06 06:18:55;;;;;;;;;;;17.30;80.80;;;;;;5073806;28;19912;-65
2021/08/06 06:21:22;;;;;;;;;;;17.40;80.90;;;;;;5074007;28;19908;-66
2021/08/06 06:23:48;;;;;;;;;;;17.40;81.20;;;;;;5073765;28;19915;-66
2021/08/06 06:26:15;;;;;;;;;;;17.40;81.80;;;;;;5073713;28;19989;-65
2021/08/06 06:28:42;;;;;;;;;;;17.30;81.50;;;;;;5073610;28;19908;-66
2021/08/06 06:31:08;;;;;;;;;;;17.40;81.00;;;;;;5073714;28;20018;-66
2021/08/06 06:33:35;;;;;;;;;;;17.30;81.40;;;;;;5073645;28;19909;-66
2021/08/06 06:36:02;;;;;;;;;;;17.20;82.00;;;;;;5073689;28;19961;-66
2021/08/06 06:38:28;;;;;;;;;;;17.10;82.30;;;;;;5073497;28;19974;-65
2021/08/06 06:40:55;;;;;;;;;;;16.90;83.00;;;;;;5055540;28;20290;-66
2021/08/06 06:43:22;;;;;;;;;;;16.90;82.60;;;;;;5073352;28;20002;-65
2021/08/06 06:45:48;;;;;;;;;;;17.00;82.80;;;;;;5073079;28;20395;-64
2021/08/06 06:48:15;;;;;;;;;;;17.00;83.00;;;;;;5073428;28;20367;-65
2021/08/06 06:50:42;;;;;;;;;;;17.00;83.20;;;;;;5072475;28;20334;-66
2021/08/06 06:53:08;;;;;;;;;;;17.00;83.00;;;;;;5071250;28;19916;-66
2021/08/06 06:55:35;;;;;;;;;;;16.90;83.40;;;;;;5071042;28;19908;-65
2021/08/06 06:58:02;;;;;;;;;;;16.80;83.60;;;;;;5070936;28;19908;-66
2021/08/06 07:00:30;;;;;;;;;;;16.60;83.80;;;;;;5071122;28;19912;-66
2021/08/06 07:02:56;;;;;;;;;;;16.50;84.10;;;;;;5071100;28;19915;-65
2021/08/06 07:05:23;;;;;;;;;;;16.30;85.30;;;;;;5070516;28;20386;-65
2021/08/06 07:07:50;;;;;;;;;;;16.20;85.40;;;;;;5070798;28;20436;-66
2021/08/06 07:10:17;;;;;;;;;;;16.20;85.60;;;;;;5070797;28;19962;-65
2021/08/06 07:12:44;;;;;;;;;;;16.10;85.80;;;;;;5070508;28;19909;-66
2021/08/06 07:15:11;;;;;;;;;;;16.10;87.10;;;;;;5070549;28;19966;-66
2021/08/06 07:17:38;;;;;;;;;;;16.10;90.40;;;;;;5070667;28;19923;-65
2021/08/06 07:20:05;;;;;;;;;;;16.00;92.20;;;;;;5070547;28;20007;-66
2021/08/06 07:22:32;;;;;;;;;;;16.00;92.70;;;;;;5070653;28;19938;-66
2021/08/06 07:24:59;;;;;;;;;;;15.90;93.50;;;;;;5070076;28;20383;-65
2021/08/06 07:27:25;;;;;;;;;;;15.90;94.00;;;;;;5069790;28;19916;-66
2021/08/06 07:29:52;;;;;;;;;;;15.80;94.20;;;;;;5070179;28;19920;-66
2021/08/06 07:32:18;;;;;;;;;;;15.70;94.30;;;;;;5070594;28;19974;-67
2021/08/06 07:34:45;;;;;;;;;;;15.60;95.00;;;;;;5070368;28;19912;-65
2021/08/06 07:37:12;;;;;;;;;;;15.50;95.00;;;;;;5070586;28;19918;-67
2021/08/06 07:39:39;;;;;;;;;;;15.40;95.60;;;;;;5070137;28;20414;-67
2021/08/06 07:42:06;;;;;;;;;;;15.40;96.10;;;;;;5070227;28;19912;-66
2021/08/06 07:44:32;;;;;;;;;;;15.40;96.60;;;;;;5069921;28;20304;-64
2021/08/06 07:46:59;;;;;;;;;;;15.30;96.90;;;;;;5070229;28;20279;-66
2021/08/06 07:49:26;;;;;;;;;;;15.40;97.20;;;;;;5069733;28;19908;-66
2021/08/06 07:51:52;;;;;;;;;;;15.40;97.30;;;;;;5069894;28;19924;-66
2021/08/06 07:54:19;;;;;;;;;;;15.30;97.40;;;;;;5070024;28;19916;-66
2021/08/06 07:56:46;;;;;;;;;;;15.20;97.80;;;;;;5070401;28;19912;-67
2021/08/06 07:59:15;;;;;;;;;;;15.20;97.90;;;;;;5070257;28;19936;-66
2021/08/06 08:01:41;;;;;;;;;;;15.10;98.50;;;;;;5069886;28;19934;-65
2021/08/06 08:04:08;;;;;;;;;;;15.10;98.60;;;;;;5070254;28;19940;-66
2021/08/06 08:06:35;;;;;;;;;;;15.10;98.90;;;;;;5051700;28;19924;-66
2021/08/06 08:09:01;;;;;;;;;;;15.10;99.30;;;;;;5070072;28;19917;-66
2021/08/06 08:11:28;;;;;;;;;;;15.10;99.50;;;;;;5070228;28;19908;-66
2021/08/06 08:13:55;;;;;;;;;;;15.00;99.70;;;;;;5069886;28;19912;-65
2021/08/06 08:16:22;;;;;;;;;;;15.10;99.90;;;;;;5070237;28;19915;-63
2021/08/06 08:18:50;;;;;;;;;;;15.00;99.90;;;;;;5070075;28;19916;-66
2021/08/06 08:21:16;;;;;;;;;;;15.10;99.90;;;;;;5069910;28;19912;-65
2021/08/06 08:23:43;;;;;;;;;;;15.00;99.90;;;;;;5069849;28;19944;-67
2021/08/06 08:26:10;;;;;;;;;;;15.00;99.90;;;;;;5070086;28;20419;-64
2021/08/06 08:28:37;;;;;;;;;;;14.90;99.90;;;;;;5084707;28;20286;-65
2021/08/06 08:31:04;;;;;;;;;;;14.90;99.90;;;;;;5091453;28;19908;-66
2021/08/06 08:33:30;;;;;;;;;;;14.90;99.90;;;;;;5091652;28;20344;-66
2021/08/06 08:36:04;;;;;;;;;;;14.80;99.90;;;;;;5091608;28;19908;-67
2021/08/06 08:38:35;;;;;;;;;;;14.70;99.90;;;;;;5091792;28;20263;-66
2021/08/06 08:41:18;;;;;;;;;;;14.70;99.90;;;;;;5092262;28;20367;-66
2021/08/06 08:43:45;;;;;;;;;;;14.70;99.90;;;;;;5091655;28;19955;-66
2021/08/06 08:46:12;;;;;;;;;;;14.80;99.90;;;;;;5091391;28;19924;-65
2021/08/06 08:48:38;;;;;;;;;;;14.80;99.90;;;;;;5090543;28;20026;-65
2021/08/06 08:51:05;;;;;;;;;;;14.90;99.90;;;;;;5090145;28;19946;-65
2021/08/06 08:53:32;;;;;;;;;;;14.90;99.90;;;;;;5089898;28;19912;-66
2021/08/06 08:55:59;;;;;;;;;;;14.80;99.90;;;;;;5090235;28;19962;-65
2021/08/06 08:58:25;;;;;;;;;;;14.80;99.90;;;;;;5089462;28;19908;-66
2021/08/06 09:00:52;;;;;;;;;;;14.80;99.90;;;;;;5091189;28;19908;-64
2021/08/06 09:03:38;;;;;;;;;;;14.70;99.90;;;;;;5093804;28;20327;-65
2021/08/06 09:06:05;;;;;;;;;;;14.70;99.90;;;;;;5076537;28;20309;-65
2021/08/06 09:08:32;;;;;;;;;;;14.60;99.90;;;;;;5094564;28;20294;-65
2021/08/06 09:10:59;;;;;;;;;;;14.60;99.90;;;;;;5095755;28;19908;-64
2021/08/06 09:13:26;;;;;;;;;;;14.60;98.40;;;;;;5094928;28;19953;-66
2021/08/06 09:15:55;;;;;;;;;;;14.70;97.60;;;;;;5095039;28;19908;-63
2021/08/06 09:18:28;;;;;;;;;;;14.80;97.00;;;;;;5095431;28;20252;-65
2021/08/06 09:20:59;;;;;;;;;;;14.80;96.40;;;;;;5095399;28;19913;-66
2021/08/06 09:23:39;;;;;;;;;;;14.90;96.20;;;;;;5095355;28;20266;-66
2021/08/06 09:26:07;;;;;;;;;;;14.90;95.90;;;;;;5095149;28;19908;-66
2021/08/06 09:28:34;;;;;;;;;;;14.90;95.40;;;;;;5094935;28;19961;-66
2021/08/06 09:31:16;;;;;;;;;;;14.90;94.70;;;;;;5095148;28;19912;-65
2021/08/06 09:33:42;;;;;;;;;;;14.90;94.40;;;;;;5094662;28;19951;-65
2021/08/06 09:36:13;;;;;;;;;;;14.90;94.30;;;;;;5095162;28;19908;-65
2021/08/06 09:38:40;;;;;;;;;;;14.90;94.10;;;;;;5094927;28;20366;-65
2021/08/06 09:41:07;;;;;;;;;;;14.80;93.60;;;;;;5095005;28;19908;-64
2021/08/06 09:43:34;;;;;;;;;;;14.80;93.60;;;;;;5094863;28;19988;-66
2021/08/06 09:46:00;;;;;;;;;;;14.70;93.60;;;;;;5094512;28;20302;-64
2021/08/06 09:48:30;;;;;;;;;;;14.70;93.30;;;;;;5095169;28;20009;-64
2021/08/06 09:50:57;;;;;;;;;;;14.70;93.30;;;;;;5095004;28;19908;-64
2021/08/06 09:53:26;;;;;;;;;;;14.70;93.40;;;;;;5094705;28;20279;-64
2021/08/06 09:55:53;;;;;;;;;;;14.60;93.50;;;;;;5094469;28;19923;-64
2021/08/06 09:58:20;;;;;;;;;;;14.50;93.50;;;;;;5094369;28;19915;-64
2021/08/06 10:00:52;;;;;;;;;;;14.50;93.50;;;;;;5094564;28;19908;-65
2021/08/06 10:03:35;;;;;;;;;;;14.50;93.60;;;;;;5094644;28;19916;-66
2021/08/06 10:06:19;;;;;;;;;;;14.40;93.70;;;;;;5094509;28;19923;-65
2021/08/06 10:08:46;;;;;;;;;;;14.40;93.60;;;;;;5094581;28;20329;-65
2021/08/06 10:11:13;;;;;;;;;;;14.40;93.60;;;;;;5094772;28;19999;-64
2021/08/06 10:13:40;;;;;;;;;;;14.40;93.70;;;;;;5093500;28;19963;-64
2021/08/06 10:16:07;;;;;;;;;;;14.40;93.70;;;;;;5094543;28;19969;-65
2021/08/06 10:18:34;;;;;;;;;;;14.30;93.70;;;;;;5094231;28;20282;-65
2021/08/06 10:21:01;;;;;;;;;;;14.30;93.80;;;;;;5094103;28;19908;-67
2021/08/06 10:23:27;;;;;;;;;;;14.30;93.80;;;;;;5094374;28;19968;-67
2021/08/06 10:25:54;;;;;;;;;;;14.20;93.90;;;;;;5093963;28;19908;-67
2021/08/06 10:28:21;;;;;;;;;;;14.20;93.90;;;;;;5093980;28;20255;-64
2021/08/06 10:30:48;;;;;;;;;;;14.20;94.20;;;;;;5092441;28;19908;-64
2021/08/06 10:33:22;;;;;;;;;;;14.10;94.20;;;;;;5094383;28;19912;-64
2021/08/06 10:35:56;;;;;;;;;;;14.10;94.10;;;;;;5093505;28;19908;-65
2021/08/06 10:38:34;;;;;;;;;;;14.00;94.20;;;;;;5093882;28;19909;-66
2021/08/06 10:41:02;;;;;;;;;;;14.00;94.30;;;;;;5093621;28;19915;-64
2021/08/06 10:43:39;;;;;;;;;;;14.10;94.10;;;;;;5075389;28;19916;-65
2021/08/06 10:46:06;;;;;;;;;;;14.00;94.10;;;;;;5093530;28;20046;-64
2021/08/06 10:48:37;;;;;;;;;;;14.00;93.90;;;;;;5093534;28;19916;-65
2021/08/06 10:51:13;;;;;;;;;;;13.90;94.00;;;;;;5093566;28;20355;-65
2021/08/06 10:53:41;;;;;;;;;;;13.90;93.90;;;;;;5092765;28;19912;-65
2021/08/06 10:56:16;;;;;;;;;;;13.90;93.90;;;;;;5093162;28;19915;-67
2021/08/06 10:58:49;;;;;;;;;;;13.90;93.90;;;;;;5092773;28;19987;-65
2021/08/06 11:01:25;;;;;;;;;;;13.90;94.00;;;;;;5091982;28;20049;-65
2021/08/06 11:03:56;;;;;;;;;;;13.80;94.10;;;;;;5072323;28;19909;-65
2021/08/06 11:06:32;;;;;;;;;;;13.80;94.50;;;;;;5073427;28;19916;-65
2021/08/06 11:08:59;;;;;;;;;;;13.70;94.60;;;;;;5073199;28;19920;-65
2021/08/06 11:11:42;;;;;;;;;;;13.60;94.80;;;;;;5071034;28;20309;-66
2021/08/06 11:14:09;;;;;;;;;;;13.60;95.00;;;;;;5070676;28;19955;-66
2021/08/06 11:16:56;;;;;;;;;;;13.50;94.70;;;;;;5070564;28;19908;-64
2021/08/06 11:19:27;;;;;;;;;;;13.50;94.80;;;;;;5071749;28;19908;-64
2021/08/06 11:21:54;;;;;;;;;;;13.50;94.80;;;;;;5071730;28;19916;-63
2021/08/06 11:24:21;;;;;;;;;;;13.40;95.20;;;;;;5072547;28;19909;-64
2021/08/06 11:26:48;;;;;;;;;;;13.40;95.40;;;;;;5071355;28;20288;-64
2021/08/06 11:29:15;;;;;;;;;;;13.40;95.40;;;;;;5069853;28;20642;-65
2021/08/06 11:31:42;;;;;;;;;;;13.30;95.20;;;;;;5070289;28;19915;-65
2021/08/06 11:34:09;;;;;;;;;;;13.30;95.00;;;;;;5070531;28;19914;-65
2021/08/06 11:36:36;;;;;;;;;;;13.30;95.10;;;;;;5051551;28;19939;-66
2021/08/06 11:39:10;;;;;;;;;;;13.30;95.30;;;;;;5070444;28;19916;-64
2021/08/06 11:41:46;;;;;;;;;;;13.30;94.90;;;;;;5069511;28;19954;-65
2021/08/06 11:44:13;;;;;;;;;;;13.30;95.10;;;;;;5069696;28;20323;-65
2021/08/06 11:46:50;;;;;;;;;;;13.20;95.00;;;;;;5070032;28;19924;-65
2021/08/06 11:49:17;;;;;;;;;;;13.30;94.90;;;;;;5070359;28;19913;-65
2021/08/06 11:51:51;;;;;;;;;;;13.30;94.90;;;;;;5070019;28;19915;-65
2021/08/06 11:54:18;;;;;;;;;;;13.30;94.50;;;;;;5070002;28;20002;-65
2021/08/06 11:56:54;;;;;;;;;;;13.20;94.40;;;;;;5069696;28;19917;-65
2021/08/06 11:59:22;;;;;;;;;;;13.30;94.60;;;;;;5069961;28;19966;-65
2021/08/06 12:01:49;;;;;;;;;;;13.20;94.70;;;;;;5069947;28;19916;-65
2021/08/06 12:04:26;;;;;;;;;;;13.20;94.70;;;;;;5070051;28;19912;-65
2021/08/06 12:06:52;;;;;;;;;;;13.20;94.60;;;;;;5069956;28;20007;-65
2021/08/06 12:09:20;;;;;;;;;;;13.20;94.60;;;;;;5078982;28;19959;-65
2021/08/06 12:11:47;;;;;;;;;;;13.10;94.50;;;;;;5089909;28;19909;-65
2021/08/06 12:14:25;;;;;;;;;;;13.10;94.60;;;;;;5071161;28;19908;-65
2021/08/06 12:16:51;;;;;;;;;;;13.10;94.60;;;;;;5089437;28;19918;-65
2021/08/06 12:19:18;;;;;;;;;;;13.10;94.60;;;;;;5089730;28;19951;-65
2021/08/06 12:21:46;;;;;;;;;;;13.10;94.70;;;;;;5089246;28;19917;-65
2021/08/06 12:24:12;;;;;;;;;;;13.10;94.50;;;;;;5089733;28;19955;-64
2021/08/06 12:26:41;;;;;;;;;;;13.00;94.60;;;;;;5090013;28;19912;-65
2021/08/06 12:29:12;;;;;;;;;;;13.00;94.70;;;;;;5089543;28;19912;-65
2021/08/06 12:32:01;;;;;;;;;;;12.90;94.60;;;;;;5089571;28;20310;-65
2021/08/06 12:34:33;;;;;;;;;;;12.90;94.70;;;;;;5076504;28;19944;-64
2021/08/06 12:37:02;;;;;;;;;;;12.80;94.70;;;;;;5093447;28;20014;-65
2021/08/06 12:39:30;;;;;;;;;;;12.90;94.40;;;;;;5093988;28;19950;-65
2021/08/06 12:42:09;;;;;;;;;;;12.90;94.30;;;;;;5093610;28;20217;-65
2021/08/06 12:44:36;;;;;;;;;;;12.90;94.50;;;;;;5093505;28;19909;-64
2021/08/06 12:47:12;;;;;;;;;;;12.80;94.30;;;;;;5093788;28;20411;-66
2021/08/06 12:49:38;;;;;;;;;;;12.80;94.50;;;;;;5093652;28;19931;-64
2021/08/06 12:52:19;;;;;;;;;;;12.80;94.40;;;;;;5093823;28;19912;-65
2021/08/06 12:54:57;;;;;;;;;;;12.80;94.50;;;;;;5093592;28;19935;-64
2021/08/06 12:57:58;;;;;;;;;;;12.70;94.40;;;;;;5093103;28;19940;-65
2021/08/06 13:00:25;;;;;;;;;;;12.80;94.40;;;;;;4991507;28;19918;-65
2021/08/06 13:02:58;;;;;;;;;;;12.70;94.40;;;;;;5073279;28;20290;-64
2021/08/06 13:05:25;;;;;;;;;;;12.70;94.40;;;;;;5093521;28;19917;-64
2021/08/06 13:07:52;;;;;;;;;;;12.70;94.60;;;;;;5093430;28;19920;-65
2021/08/06 13:10:26;;;;;;;;;;;12.70;94.40;;;;;;5093430;28;19919;-66
2021/08/06 13:12:52;;;;;;;;;;;12.70;94.40;;;;;;5093140;28;19919;-65
2021/08/06 13:15:20;;;;;;;;;;;12.70;94.40;;;;;;5093490;28;19931;-64
2021/08/06 13:17:46;;;;;;;;;;;12.70;94.40;;;;;;5093930;28;19920;-65
2021/08/06 13:20:13;;;;;;;;;;;12.70;94.40;;;;;;5094291;28;20267;-66
2021/08/06 13:22:41;;;;;;;;;;;12.70;94.20;;;;;;5093995;28;19912;-66
2021/08/06 13:25:09;;;;;;;;;;;12.70;94.30;;;;;;5094176;28;20286;-66
2021/08/06 13:27:36;;;;;;;;;;;12.70;94.30;;;;;;5093722;28;19912;-64
2021/08/06 13:30:06;;;;;;;;;;;12.60;94.30;;;;;;5092920;28;20324;-64
2021/08/06 13:32:32;;;;;;;;;;;12.60;94.40;;;;;;5092934;28;19915;-64
2021/08/06 13:34:59;;;;;;;;;;;12.60;94.40;;;;;;5093053;28;19908;-65
2021/08/06 13:37:26;;;;;;;;;;;12.50;94.40;;;;;;5093066;28;19965;-64
2021/08/06 13:39:52;;;;;;;;;;;12.50;94.40;;;;;;5092513;28;20351;-64
2021/08/06 13:42:19;;;;;;;;;;;12.50;94.50;;;;;;5092597;28;19956;-65
2021/08/06 13:44:45;;;;;;;;;;;12.50;94.50;;;;;;5092512;28;20317;-65
2021/08/06 13:47:12;;;;;;;;;;;12.40;94.60;;;;;;5091616;28;20003;-65
2021/08/06 13:49:39;;;;;;;;;;;12.40;94.40;;;;;;5092449;28;19912;-65
2021/08/06 13:52:06;;;;;;;;;;;12.40;94.70;;;;;;5092297;28;19915;-65
2021/08/06 13:54:33;;;;;;;;;;;12.30;94.80;;;;;;5092491;28;19912;-65
2021/08/06 13:57:00;;;;;;;;;;;12.30;94.80;;;;;;5092189;28;19992;-66
2021/08/06 13:59:26;;;;;;;;;;;12.30;94.80;;;;;;5092524;28;19908;-65
2021/08/06 14:01:53;;;;;;;;;;;12.30;94.90;;;;;;5092280;28;19973;-64
2021/08/06 14:04:20;;;;;;;;;;;12.20;95.10;;;;;;5092574;28;19912;-65
2021/08/06 14:06:47;;;;;;;;;;;12.20;95.20;;;;;;5092211;28;19916;-64
2021/08/06 14:09:13;;;;;;;;;;;12.10;95.10;;;;;;5092393;28;20149;-64
2021/08/06 14:11:40;;;;;;;;;;;12.10;95.20;;;;;;5091868;28;19912;-64
2021/08/06 14:14:07;;;;;;;;;;;12.00;95.40;;;;;;5092481;28;19955;-66
2021/08/06 14:16:33;;;;;;;;;;;12.00;95.70;;;;;;5092320;28;19963;-64
2021/08/06 14:19:00;;;;;;;;;;;12.00;95.50;;;;;;5091685;28;19908;-65
2021/08/06 14:21:27;;;;;;;;;;;12.00;95.60;;;;;;5092103;28;19912;-65
2021/08/06 14:23:53;;;;;;;;;;;11.90;95.70;;;;;;5091906;28;19912;-64